Главная страница
METAR-TAF:

METAR-TAF

Аэропорты :

Абиджан, Кот-д'Ивуар

широта: 05-15N, долгота: 003-56W, высота над уровнем моря: 7 м

Текущие метеонаблюдения

Эта сводка был подготовлена 31 минут назад, в 08:00 UTC
Ветер 6 Узел от северо-северо-восточный
Температура 30°C
Влажность 84%
Давление 1011 hPa
Видимость 10 км и более
Отдельные облака на высоте 1300 фута

METAR: DIAP 250800Z 02006KT 9999 SCT013 30/27 Q1011 NOSIG

Время: 08:31 (08:31 UTC)

Прогноз

Эта сводка был подготовлена 2 часа и 41 минут назад, в 05:50 UTC
Прогноз действительный с 25-го 06 UTC до 26-го 12 UTC
Ветер 4 Узел от южный-юго-западный
Видимость 10 км и более
Отдельные облака на высоте 1200 фута
Вероятность 30% :
временами
С 25-го 16 UTC до 25-го 20 UTC
Рассеянная облачность на высоте 1200 фута
небольшая облачность на высоте 2000 фута, Кучево-дождевые.
гроза,

TAF: DIAP 250550Z 2506/2612 20004KT 9999 SCT012 PROB30 TEMPO 2516/2520 TS BKN012 FEW020CB

Метеонаблюдения и прогнозы для более 4000 аэропортов (сводки METAR и TAF).

Имеющиеся станции представлены на карте желтыми и красными точками.

Чтобы увидеть название станции, наведите на нее мышь.

Затем щелкните, чтобы увидеть метеонаблюдения и метеопрогнозы.

Управление картой: чтобы увеличить масштаб, щелкните зеленые кнопки с черным крестиком; чтобы уменьшить масштаб, щелкните зеленую кнопку с тире; для просмотра соседних карт щелкайте зеленые стрелки.


METAR-TAF: